Hunt, Texas
Current Conditions -  °F | °C
As of 12:15 PM on Saturday 25 Oct 2014 (Local Time) from KERV Reporting Station
Clear Clear  
Wind Chill: 79°   Ceiling: Unl
Heat Index: 80°   Visibility: 10mi
Dew Point: 60°   Wind: 7mph
Humidity: 53%   Direction: 190°S
Pressure: 30.21"   Gusts: NA
Location:  30.07°N, 99.34°W
Report Text: KERV 251715Z AUTO 19006KT 10SM CLR 26/16 A3021 RMK AO2 T02610157
Loading
Personal Weather Stations






























Interactive Weather Map
Tropical Storm Tracking
New forecast layout! Learn more

10-Day Weather Forecast

Advertisements
Track Severe Weather on mobile